createdAt,value
2024-01-11T00:00:55.233Z,53.14
2024-01-11T00:01:54.822Z,53.31
2024-01-11T00:02:54.817Z,53.37
2024-01-11T00:03:54.802Z,53.36
2024-01-11T00:04:54.871Z,53.73
2024-01-11T00:05:54.908Z,54.45
2024-01-11T00:06:54.908Z,54.99
2024-01-11T00:07:54.817Z,55.39
2024-01-11T00:08:54.879Z,55.72
2024-01-11T00:09:54.897Z,55.59
2024-01-11T00:10:55.905Z,55.27
2024-01-11T00:11:54.810Z,54.92
2024-01-11T00:12:54.924Z,54.74
2024-01-11T00:13:54.932Z,54.51
2024-01-11T00:14:54.978Z,54.19
2024-01-11T00:15:54.950Z,53.76
2024-01-11T00:16:54.925Z,53.68
2024-01-11T00:17:55.049Z,53.72
2024-01-11T00:18:55.064Z,53.59
2024-01-11T00:19:55.991Z,53.47
2024-01-11T00:20:55.020Z,53.48
2024-01-11T00:21:55.015Z,53.36
2024-01-11T00:22:55.017Z,53.14
2024-01-11T00:23:55.039Z,53.03
2024-01-11T00:24:55.100Z,52.88
2024-01-11T00:25:55.085Z,52.86
2024-01-11T00:26:55.072Z,52.74
2024-01-11T00:27:55.121Z,52.66
2024-01-11T00:28:55.180Z,52.58
2024-01-11T00:29:55.067Z,52.60
2024-01-11T00:30:55.077Z,52.48
2024-01-11T00:31:55.084Z,52.48
2024-01-11T00:32:56.140Z,52.55
2024-01-11T00:33:55.199Z,52.49
2024-01-11T00:34:55.176Z,52.23
2024-01-11T00:35:55.108Z,52.08
2024-01-11T00:36:55.080Z,52.37
2024-01-11T00:37:55.105Z,52.68
2024-01-11T00:38:55.112Z,52.55
2024-01-11T00:39:55.069Z,52.45
2024-01-11T00:40:55.098Z,52.32
2024-01-11T00:41:55.102Z,52.37
2024-01-11T00:42:56.053Z,52.25
2024-01-11T00:43:55.154Z,52.21
2024-01-11T00:44:55.163Z,52.48
2024-01-11T00:45:55.127Z,52.63
2024-01-11T00:46:55.183Z,52.46
2024-01-11T00:47:55.257Z,52.53
2024-01-11T00:48:56.780Z,52.76
2024-01-11T00:49:55.321Z,53.27
2024-01-11T00:50:56.188Z,53.92
2024-01-11T00:51:55.177Z,54.32
2024-01-11T00:52:55.226Z,54.87
2024-01-11T00:53:55.184Z,55.18
2024-01-11T00:54:55.191Z,55.30
2024-01-11T00:55:55.344Z,55.06
2024-01-11T00:56:55.317Z,54.73
2024-01-11T00:57:55.247Z,54.41
2024-01-11T00:58:56.164Z,54.25
2024-01-11T00:59:55.231Z,54.33
2024-01-11T01:00:55.179Z,54.30
2024-01-11T01:01:55.196Z,54.54
2024-01-11T01:02:56.077Z,55.01
2024-01-11T01:03:55.191Z,55.19
2024-01-11T01:04:56.178Z,55.42
2024-01-11T01:05:55.352Z,55.28
2024-01-11T01:06:55.254Z,55.13
2024-01-11T01:07:55.314Z,54.71
2024-01-11T01:08:55.374Z,54.68
2024-01-11T01:09:55.188Z,54.29
2024-01-11T01:10:55.307Z,53.85
2024-01-11T01:11:55.276Z,53.81
2024-01-11T01:12:55.322Z,54.06
2024-01-11T01:13:55.314Z,54.68
2024-01-11T01:14:55.279Z,54.89
2024-01-11T01:15:55.262Z,55.30
2024-01-11T01:16:55.199Z,56.04
2024-01-11T01:17:55.503Z,56.50
2024-01-11T01:18:55.332Z,56.54
2024-01-11T01:19:55.349Z,56.31
2024-01-11T01:20:55.300Z,55.97
2024-01-11T01:21:55.269Z,55.80
2024-01-11T01:22:55.287Z,55.99
2024-01-11T01:23:55.287Z,56.20
2024-01-11T01:24:55.325Z,56.02
2024-01-11T01:25:55.314Z,55.93
2024-01-11T01:26:55.299Z,55.55
2024-01-11T01:27:55.382Z,55.74
2024-01-11T01:28:55.299Z,55.98
2024-01-11T01:29:55.326Z,56.05
2024-01-11T01:30:55.383Z,55.90
2024-01-11T01:31:55.474Z,55.60
2024-01-11T01:32:55.435Z,55.36
2024-01-11T01:33:55.414Z,55.18
2024-01-11T01:34:55.323Z,55.24
2024-01-11T01:35:55.285Z,55.22
2024-01-11T01:36:55.337Z,55.30
2024-01-11T01:37:55.271Z,55.32
2024-01-11T01:38:55.370Z,55.28
2024-01-11T01:39:55.322Z,55.08
2024-01-11T01:40:55.461Z,55.21
2024-01-11T01:41:55.192Z,55.48
2024-01-11T01:42:55.302Z,55.48
2024-01-11T01:43:55.287Z,55.41
2024-01-11T01:44:55.339Z,55.54
2024-01-11T01:45:55.439Z,55.41
2024-01-11T01:46:55.369Z,55.24
2024-01-11T01:47:55.394Z,55.13
2024-01-11T01:48:55.403Z,55.14
2024-01-11T01:49:55.384Z,55.36
2024-01-11T01:50:55.357Z,55.04
2024-01-11T01:51:55.372Z,54.60
2024-01-11T01:52:55.386Z,54.47
2024-01-11T01:53:55.317Z,54.25
2024-01-11T01:54:55.311Z,54.16
2024-01-11T01:55:55.304Z,54.30
2024-01-11T01:56:55.333Z,55.13
2024-01-11T01:57:55.432Z,55.84
2024-01-11T01:58:55.377Z,56.15
2024-01-11T01:59:55.425Z,56.31
2024-01-11T02:00:56.197Z,56.74
2024-01-11T02:01:55.430Z,56.97
2024-01-11T02:02:55.500Z,56.88
2024-01-11T02:03:55.504Z,56.77
2024-01-11T02:04:55.512Z,56.87
2024-01-11T02:05:55.593Z,57.08
2024-01-11T02:06:55.457Z,57.13
2024-01-11T02:07:55.392Z,57.01
2024-01-11T02:08:55.401Z,56.80
2024-01-11T02:09:55.493Z,56.72
2024-01-11T02:10:55.508Z,57.03
2024-01-11T02:11:55.480Z,57.25
2024-01-11T02:12:56.073Z,57.62
2024-01-11T02:13:55.470Z,57.74
2024-01-11T02:14:55.468Z,57.64
2024-01-11T02:15:55.360Z,57.25
2024-01-11T02:16:55.490Z,57.24
2024-01-11T02:17:55.485Z,57.11
2024-01-11T02:18:55.480Z,56.83
2024-01-11T02:19:55.537Z,56.55
2024-01-11T02:20:55.428Z,56.55
2024-01-11T02:21:55.417Z,56.38
2024-01-11T02:22:56.174Z,56.47
2024-01-11T02:23:55.476Z,56.61
2024-01-11T02:24:55.460Z,56.45
2024-01-11T02:25:55.433Z,56.95
2024-01-11T02:26:55.468Z,57.45
2024-01-11T02:27:55.419Z,57.92
2024-01-11T02:28:55.492Z,57.65
2024-01-11T02:29:55.359Z,57.16
2024-01-11T02:30:55.476Z,56.65
2024-01-11T02:31:56.056Z,56.23
2024-01-11T02:32:55.664Z,56.07
2024-01-11T02:33:55.418Z,56.18
2024-01-11T02:34:56.141Z,56.53
2024-01-11T02:35:55.359Z,56.52
2024-01-11T02:36:55.362Z,56.16
2024-01-11T02:37:56.182Z,55.66
2024-01-11T02:38:55.367Z,55.29
2024-01-11T02:39:56.048Z,54.86
2024-01-11T02:40:55.337Z,55.02
2024-01-11T02:41:55.311Z,55.41
2024-01-11T02:42:57.009Z,55.81
2024-01-11T02:43:55.350Z,55.92
2024-01-11T02:44:55.302Z,55.71
2024-01-11T02:45:56.170Z,55.71
2024-01-11T02:46:55.370Z,55.46
2024-01-11T02:47:55.358Z,55.31
2024-01-11T02:48:55.382Z,55.13
2024-01-11T02:49:55.326Z,54.97
2024-01-11T02:50:55.346Z,54.96
2024-01-11T02:51:55.192Z,54.55
2024-01-11T02:52:55.287Z,54.12
2024-01-11T02:53:55.269Z,54.02
2024-01-11T02:54:56.139Z,54.12
2024-01-11T02:55:55.344Z,54.30
2024-01-11T02:56:55.248Z,54.50
2024-01-11T02:57:55.261Z,54.62
2024-01-11T02:58:55.401Z,54.73
2024-01-11T02:59:55.318Z,54.59
2024-01-11T03:00:55.317Z,54.50
2024-01-11T03:01:55.323Z,54.72
2024-01-11T03:02:55.295Z,55.21
2024-01-11T03:03:55.394Z,55.57
2024-01-11T03:04:55.301Z,55.62
2024-01-11T03:05:55.398Z,55.62
2024-01-11T03:06:55.338Z,55.46
2024-01-11T03:07:55.300Z,55.54
2024-01-11T03:08:55.311Z,55.60
2024-01-11T03:09:55.287Z,55.39
2024-01-11T03:10:55.324Z,55.08
2024-01-11T03:11:55.258Z,55.07
2024-01-11T03:12:55.272Z,54.96
2024-01-11T03:13:55.279Z,54.97
2024-01-11T03:14:55.268Z,55.17
2024-01-11T03:15:55.280Z,55.17
2024-01-11T03:16:55.286Z,55.07
2024-01-11T03:17:55.451Z,55.24
2024-01-11T03:18:55.358Z,54.88
2024-01-11T03:19:55.403Z,54.64
2024-01-11T03:20:55.989Z,54.26
2024-01-11T03:21:55.376Z,53.94
2024-01-11T03:22:55.319Z,54.04
2024-01-11T03:23:55.260Z,53.96
2024-01-11T03:24:55.309Z,54.09
2024-01-11T03:25:55.359Z,54.15
2024-01-11T03:26:55.292Z,54.14
2024-01-11T03:27:55.338Z,54.02
2024-01-11T03:28:55.387Z,53.73
2024-01-11T03:29:55.328Z,53.86
2024-01-11T03:30:55.410Z,54.31
2024-01-11T03:31:55.390Z,54.16
2024-01-11T03:32:55.469Z,53.87
2024-01-11T03:33:55.357Z,53.76
2024-01-11T03:34:56.142Z,53.68
2024-01-11T03:35:55.259Z,53.63
2024-01-11T03:36:55.288Z,53.83
2024-01-11T03:37:55.306Z,53.89
2024-01-11T03:38:55.266Z,54.07
2024-01-11T03:39:55.301Z,54.28
2024-01-11T03:40:55.326Z,54.23
2024-01-11T03:41:55.246Z,54.11
2024-01-11T03:42:55.226Z,54.06
2024-01-11T03:43:55.268Z,53.81
2024-01-11T03:44:55.285Z,53.60
2024-01-11T03:45:55.272Z,53.79
2024-01-11T03:46:55.342Z,53.83
2024-01-11T03:47:55.357Z,54.36
2024-01-11T03:48:56.024Z,54.77
2024-01-11T03:49:55.383Z,54.85
2024-01-11T03:50:55.331Z,54.84
2024-01-11T03:51:55.333Z,54.88
2024-01-11T03:52:55.570Z,54.65
2024-01-11T03:53:55.474Z,54.50
2024-01-11T03:54:55.407Z,54.43
2024-01-11T03:55:55.369Z,54.50
2024-01-11T03:56:55.416Z,54.44
2024-01-11T03:57:55.388Z,54.29
2024-01-11T03:58:55.466Z,54.13
2024-01-11T03:59:56.087Z,53.81
2024-01-11T04:00:55.407Z,53.93
2024-01-11T04:01:55.403Z,54.11
2024-01-11T04:02:55.364Z,54.70
2024-01-11T04:03:55.545Z,55.30
2024-01-11T04:04:55.402Z,55.83
2024-01-11T04:05:55.441Z,55.92
2024-01-11T04:06:55.373Z,55.66
2024-01-11T04:07:55.420Z,55.26
2024-01-11T04:08:55.328Z,54.67
2024-01-11T04:09:55.370Z,54.22
2024-01-11T04:10:56.106Z,53.88
2024-01-11T04:11:55.358Z,53.74
2024-01-11T04:12:55.307Z,53.67
2024-01-11T04:13:55.382Z,53.65
2024-01-11T04:14:55.300Z,53.39
2024-01-11T04:15:55.326Z,53.67
2024-01-11T04:16:55.395Z,53.83
2024-01-11T04:17:55.373Z,53.93
2024-01-11T04:18:55.300Z,53.86
2024-01-11T04:19:55.370Z,53.66
2024-01-11T04:20:55.243Z,53.57
2024-01-11T04:21:55.286Z,53.69
2024-01-11T04:22:55.265Z,53.75
2024-01-11T04:23:55.250Z,53.73
2024-01-11T04:24:55.306Z,53.54
2024-01-11T04:25:55.216Z,54.01
2024-01-11T04:26:56.138Z,54.75
2024-01-11T04:27:55.244Z,55.04
2024-01-11T04:28:57.917Z,55.01
2024-01-11T04:29:55.316Z,54.98
2024-01-11T04:30:55.377Z,54.75
2024-01-11T04:31:55.262Z,54.45
2024-01-11T04:32:55.337Z,54.31
2024-01-11T04:33:56.263Z,54.80
2024-01-11T04:34:55.280Z,55.37
2024-01-11T04:35:55.036Z,56.08
2024-01-11T04:36:55.171Z,56.01
2024-01-11T04:37:55.188Z,55.79
2024-01-11T04:38:55.144Z,55.63
2024-01-11T04:39:55.090Z,55.75
2024-01-11T04:40:55.214Z,55.66
2024-01-11T04:41:55.162Z,56.17
2024-01-11T04:42:55.170Z,56.59
2024-01-11T04:43:55.231Z,56.30
2024-01-11T04:44:55.167Z,56.32
2024-01-11T04:45:55.202Z,56.26
2024-01-11T04:46:55.216Z,55.81
2024-01-11T04:47:55.539Z,55.33
2024-01-11T04:48:55.366Z,55.19
2024-01-11T04:49:55.286Z,54.98
2024-01-11T04:50:55.237Z,54.53
2024-01-11T04:51:55.191Z,54.83
2024-01-11T04:52:55.234Z,55.02
2024-01-11T04:53:55.223Z,55.45
2024-01-11T04:54:55.247Z,56.11
2024-01-11T04:55:55.172Z,56.79
2024-01-11T04:56:55.176Z,57.33
2024-01-11T04:57:55.180Z,57.32
2024-01-11T04:58:55.245Z,56.77
2024-01-11T04:59:55.234Z,56.82
2024-01-11T05:00:55.316Z,56.91
2024-01-11T05:01:55.224Z,56.75
2024-01-11T05:02:55.370Z,56.59
2024-01-11T05:03:55.254Z,56.20
2024-01-11T05:04:55.233Z,55.85
2024-01-11T05:05:55.277Z,55.87
2024-01-11T05:06:55.270Z,55.98
2024-01-11T05:07:55.245Z,56.30
2024-01-11T05:08:56.111Z,56.37
2024-01-11T05:09:55.246Z,56.08
2024-01-11T05:10:55.252Z,55.78
2024-01-11T05:11:55.255Z,55.57
2024-01-11T05:12:55.261Z,55.57
2024-01-11T05:13:55.312Z,55.95
2024-01-11T05:14:56.085Z,56.10
2024-01-11T05:15:55.265Z,56.13
2024-01-11T05:16:55.350Z,55.95
2024-01-11T05:17:55.466Z,55.68
2024-01-11T05:18:55.414Z,55.73
2024-01-11T05:19:55.312Z,55.72
2024-01-11T05:20:56.159Z,55.82
2024-01-11T05:21:55.274Z,56.10
2024-01-11T05:22:56.134Z,56.21
2024-01-11T05:23:55.290Z,55.87
2024-01-11T05:24:55.342Z,56.12
2024-01-11T05:25:55.347Z,56.21
2024-01-11T05:26:55.337Z,56.08
2024-01-11T05:27:55.308Z,55.79
2024-01-11T05:28:55.354Z,55.45
2024-01-11T05:29:55.206Z,55.52
2024-01-11T05:30:56.301Z,55.74
2024-01-11T05:31:55.423Z,55.71
2024-01-11T05:41:13.902Z,56.22
2024-01-11T05:42:03.492Z,55.82
2024-01-11T05:43:03.531Z,56.37
2024-01-11T05:44:03.587Z,56.89
2024-01-11T05:45:03.612Z,56.86
2024-01-11T05:46:03.629Z,56.63
2024-01-11T05:47:03.654Z,56.45
2024-01-11T05:48:03.741Z,56.58
2024-01-11T05:49:03.738Z,56.55
2024-01-11T05:50:03.775Z,56.39
2024-01-11T05:51:03.781Z,56.06
2024-01-11T05:52:03.936Z,55.70
2024-01-11T05:53:03.765Z,55.33
2024-01-11T05:54:03.810Z,55.32
2024-01-11T05:55:03.959Z,55.53
2024-01-11T05:56:04.043Z,55.43
2024-01-11T05:57:04.175Z,55.45
2024-01-11T05:58:04.175Z,55.35
2024-01-11T05:59:04.237Z,55.18
2024-01-11T06:00:04.302Z,54.86
2024-01-11T06:02:27.216Z,56.28
2024-01-11T06:03:04.769Z,55.90
2024-01-11T06:04:04.466Z,55.76
2024-01-11T06:05:04.562Z,55.54
2024-01-11T06:06:04.735Z,55.39
2024-01-11T06:07:05.292Z,55.28
2024-01-11T06:08:04.529Z,55.03
2024-01-11T06:09:04.599Z,54.87
2024-01-11T06:10:04.596Z,55.06
2024-01-11T06:11:04.635Z,55.68
2024-01-11T06:12:04.623Z,55.85
2024-01-11T06:13:04.624Z,56.12
2024-01-11T06:14:06.492Z,56.01
2024-01-11T06:15:04.868Z,55.49
2024-01-11T06:16:04.760Z,55.45
2024-01-11T06:17:04.873Z,55.75
2024-01-11T06:18:04.838Z,56.05
2024-01-11T06:19:04.976Z,55.99
2024-01-11T06:20:05.050Z,55.62
2024-01-11T06:21:05.096Z,55.42
2024-01-11T06:22:05.211Z,55.21
2024-01-11T06:23:05.323Z,55.24
2024-01-11T06:24:05.220Z,55.35
2024-01-11T06:25:05.430Z,55.24
2024-01-11T06:26:05.599Z,55.11
2024-01-11T06:27:05.638Z,55.37
2024-01-11T06:28:05.646Z,55.18
2024-01-11T06:29:05.787Z,55.32
2024-01-11T06:30:06.193Z,55.25
2024-01-11T06:31:05.994Z,55.02
2024-01-11T06:32:05.837Z,54.87
2024-01-11T06:33:06.035Z,54.83
2024-01-11T06:34:06.028Z,54.73
2024-01-11T06:35:06.664Z,54.70
2024-01-11T06:36:06.208Z,54.87
2024-01-11T06:37:06.140Z,54.92
2024-01-11T06:38:06.266Z,55.07
2024-01-11T06:39:06.148Z,55.04
2024-01-11T06:40:06.654Z,55.18
2024-01-11T06:41:06.263Z,55.16
2024-01-11T06:42:06.374Z,55.57
2024-01-11T06:43:06.572Z,56.00
2024-01-11T06:44:06.448Z,56.26
2024-01-11T06:45:06.510Z,55.98
2024-01-11T06:47:29.054Z,57.07
2024-01-11T06:48:06.581Z,55.78
2024-01-11T06:49:06.955Z,55.23
2024-01-11T06:50:06.706Z,55.32
2024-01-11T06:51:06.712Z,55.67
2024-01-11T06:52:06.584Z,56.21
2024-01-11T06:53:06.799Z,56.73
2024-01-11T06:54:06.576Z,56.75
2024-01-11T06:55:06.698Z,56.52
2024-01-11T06:56:06.712Z,56.18
2024-01-11T06:57:06.646Z,56.62
2024-01-11T06:58:06.829Z,56.81
2024-01-11T06:59:06.744Z,56.49
2024-01-11T07:00:07.045Z,56.22
2024-01-11T07:01:06.844Z,55.84
2024-01-11T07:02:06.889Z,55.63
2024-01-11T07:03:06.862Z,55.28
2024-01-11T07:04:07.029Z,55.18
2024-01-11T07:05:07.082Z,55.12
2024-01-11T07:06:07.304Z,55.09
2024-01-11T07:07:07.073Z,54.81
2024-01-11T07:08:07.283Z,54.69
2024-01-11T07:09:07.324Z,54.68
2024-01-11T07:10:07.396Z,54.95
2024-01-11T07:11:07.468Z,54.72
2024-01-11T07:12:07.895Z,54.76
2024-01-11T07:13:08.074Z,54.81
2024-01-11T07:14:07.763Z,54.41
2024-01-11T07:15:08.154Z,54.01
2024-01-11T07:16:07.745Z,53.90
2024-01-11T07:17:07.860Z,53.70
2024-01-11T07:18:08.002Z,53.85
2024-01-11T07:19:08.943Z,53.79
2024-01-11T07:20:08.478Z,53.77
2024-01-11T07:21:08.101Z,53.92
2024-01-11T07:22:07.986Z,54.02
2024-01-11T07:23:08.045Z,54.22
2024-01-11T07:24:08.115Z,54.23
2024-01-11T07:25:08.539Z,54.20
2024-01-11T07:26:08.384Z,54.64
2024-01-11T07:27:08.258Z,54.73
2024-01-11T07:28:08.408Z,54.65
2024-01-11T07:29:08.488Z,54.38
2024-01-11T07:30:08.510Z,54.24
2024-01-11T07:31:08.808Z,54.07
2024-01-11T07:32:08.604Z,54.13
2024-01-11T07:33:10.864Z,53.92
2024-01-11T07:34:08.646Z,53.61
2024-01-11T07:35:12.162Z,54.02
2024-01-11T07:36:10.070Z,54.64
2024-01-11T07:37:09.313Z,54.76
2024-01-11T07:38:09.073Z,54.29
2024-01-11T07:39:10.532Z,54.41
2024-01-11T07:40:09.330Z,54.61
2024-01-11T07:41:09.602Z,54.86
2024-01-11T07:42:09.156Z,55.32
2024-01-11T07:43:09.840Z,55.28
2024-01-11T07:44:09.198Z,55.43
2024-01-11T07:45:09.666Z,55.66
2024-01-11T07:46:09.752Z,55.93
2024-01-11T07:47:09.860Z,55.66
2024-01-11T07:48:09.598Z,55.11
2024-01-11T07:49:10.221Z,54.93
2024-01-11T07:50:09.621Z,54.89
2024-01-11T07:51:09.645Z,54.70
2024-01-11T07:52:10.229Z,54.23
2024-01-11T07:53:09.988Z,54.27
2024-01-11T07:54:09.780Z,54.31
2024-01-11T07:55:10.457Z,54.12
2024-01-11T07:56:09.930Z,53.83
2024-01-11T07:57:10.604Z,53.54
2024-01-11T07:58:09.999Z,53.57
2024-01-11T07:59:10.412Z,53.82
2024-01-11T08:00:10.515Z,54.02
2024-01-11T08:01:11.008Z,54.20
2024-01-11T08:02:10.564Z,54.17
2024-01-11T08:03:10.485Z,53.97
2024-01-11T08:04:10.671Z,54.01
2024-01-11T08:05:12.457Z,53.84
2024-01-11T08:06:11.536Z,53.84
2024-01-11T08:07:11.355Z,53.78
2024-01-11T08:08:10.583Z,53.72
2024-01-11T08:09:11.518Z,53.64
2024-01-11T08:10:34.632Z,53.51
2024-01-11T08:11:10.878Z,53.63
2024-01-11T08:12:11.231Z,53.28
2024-01-11T08:13:11.753Z,53.32
2024-01-11T08:14:11.041Z,53.32
2024-01-11T08:15:11.238Z,53.46
2024-01-11T08:16:11.726Z,53.48
2024-01-11T08:17:12.377Z,53.46
2024-01-11T08:18:11.967Z,53.29
2024-01-11T08:19:11.424Z,53.09
2024-01-11T08:20:11.419Z,52.66
2024-01-11T08:21:11.455Z,52.60
2024-01-11T08:22:11.058Z,52.52
2024-01-11T08:23:11.883Z,52.43
2024-01-11T08:24:11.181Z,52.52
2024-01-11T08:25:12.047Z,52.47
2024-01-11T08:26:12.060Z,52.80
2024-01-11T08:27:11.292Z,53.43
2024-01-11T08:28:11.922Z,54.32
2024-01-11T08:29:11.589Z,55.14
2024-01-11T08:30:11.716Z,55.60
2024-01-11T08:31:11.625Z,55.61
2024-01-11T08:32:19.984Z,55.45
2024-01-11T08:33:12.966Z,54.94
2024-01-11T08:34:15.273Z,54.40
2024-01-11T08:35:11.882Z,53.83
2024-01-11T08:36:11.566Z,53.33
2024-01-11T08:37:11.412Z,52.88
2024-01-11T08:38:12.082Z,52.61
2024-01-11T08:39:11.465Z,52.48
2024-01-11T08:40:11.484Z,52.32
2024-01-11T08:41:11.613Z,52.23
2024-01-11T08:42:11.591Z,52.01
2024-01-11T08:43:11.763Z,51.84
2024-01-11T08:44:12.144Z,52.43
2024-01-11T08:45:11.611Z,52.72
2024-01-11T08:46:11.619Z,52.83
2024-01-11T08:47:11.678Z,52.91
2024-01-11T08:48:11.794Z,52.78
2024-01-11T08:49:11.847Z,52.65
2024-01-11T08:50:11.680Z,52.56
2024-01-11T08:51:12.232Z,52.27
2024-01-11T08:52:11.832Z,51.97
2024-01-11T08:53:11.896Z,52.40
2024-01-11T08:54:11.792Z,52.69
2024-01-11T08:55:11.805Z,52.92
2024-01-11T08:56:12.273Z,52.86
2024-01-11T08:57:12.133Z,52.59
2024-01-11T08:58:37.634Z,52.59
2024-01-11T08:59:11.940Z,53.07
2024-01-11T09:00:11.885Z,52.82
2024-01-11T09:01:12.094Z,52.55
2024-01-11T09:02:15.850Z,52.25
2024-01-11T09:03:13.576Z,52.14
2024-01-11T09:04:12.093Z,51.94
2024-01-11T09:05:12.054Z,52.15
2024-01-11T09:06:12.232Z,51.81
2024-01-11T09:07:12.394Z,51.78
2024-01-11T09:08:12.229Z,52.07
2024-01-11T09:09:12.464Z,52.16
2024-01-11T09:10:12.441Z,52.23
2024-01-11T09:11:12.806Z,52.02
2024-01-11T09:12:12.690Z,51.95
2024-01-11T09:13:14.099Z,51.75
2024-01-11T09:14:12.838Z,51.98
2024-01-11T09:15:12.746Z,52.34
2024-01-11T09:16:12.799Z,52.54
2024-01-11T09:17:12.969Z,52.28
2024-01-11T09:18:13.426Z,52.59
2024-01-11T09:19:13.174Z,52.71
2024-01-11T09:20:13.368Z,53.11
2024-01-11T09:21:13.198Z,53.02
2024-01-11T09:22:13.595Z,52.88
2024-01-11T09:23:13.281Z,52.38
2024-01-11T09:24:13.334Z,52.21
2024-01-11T09:25:13.320Z,52.65
2024-01-11T09:26:13.491Z,53.16
2024-01-11T09:27:13.437Z,53.26
2024-01-11T09:28:13.578Z,53.22
2024-01-11T09:29:13.615Z,53.21
2024-01-11T09:30:13.639Z,53.32
2024-01-11T09:31:14.205Z,53.51
2024-01-11T09:32:13.782Z,53.70
2024-01-11T09:33:13.778Z,53.52
2024-01-11T09:34:13.997Z,52.91
2024-01-11T09:35:16.195Z,52.57
2024-01-11T09:36:14.157Z,52.25
2024-01-11T09:37:13.935Z,52.16
2024-01-11T09:38:14.290Z,52.17
2024-01-11T09:39:14.144Z,51.98
2024-01-11T09:40:14.062Z,51.87
2024-01-11T09:41:15.066Z,51.85
2024-01-11T09:42:13.996Z,51.75
2024-01-11T09:43:14.158Z,51.89
2024-01-11T09:44:14.100Z,51.98
2024-01-11T09:45:14.215Z,51.98
2024-01-11T09:46:14.680Z,51.61
2024-01-11T09:47:16.342Z,51.54
2024-01-11T09:48:14.246Z,51.56
2024-01-11T09:49:14.255Z,51.23
2024-01-11T09:50:14.439Z,51.13
2024-01-11T09:51:14.214Z,51.35
2024-01-11T09:52:14.656Z,51.30
2024-01-11T09:53:14.261Z,50.78
2024-01-11T09:54:14.216Z,50.85
2024-01-11T09:55:14.678Z,51.10
2024-01-11T09:56:14.311Z,51.26
2024-01-11T09:57:15.213Z,51.53
2024-01-11T09:58:14.518Z,51.41
2024-01-11T09:59:15.239Z,51.34
2024-01-11T10:00:14.509Z,51.09
2024-01-11T10:01:15.448Z,50.98
2024-01-11T10:02:14.690Z,50.73
2024-01-11T10:03:14.813Z,50.60
2024-01-11T10:04:15.762Z,50.05
2024-01-11T10:05:15.328Z,49.49
2024-01-11T10:06:14.358Z,49.24
2024-01-11T10:07:15.447Z,49.14
2024-01-11T10:08:15.633Z,49.08
2024-01-11T10:09:14.696Z,49.38
2024-01-11T10:10:15.424Z,49.41
2024-01-11T10:11:15.200Z,49.43
2024-01-11T10:12:15.197Z,49.55
2024-01-11T10:13:15.249Z,49.59
2024-01-11T10:14:14.666Z,49.47
2024-01-11T10:15:14.689Z,49.43
2024-01-11T10:16:23.251Z,49.63
2024-01-11T10:17:25.636Z,49.59
2024-01-11T10:18:23.319Z,49.51
2024-01-11T10:19:23.334Z,49.38
2024-01-11T10:20:22.950Z,49.21
2024-01-11T10:21:23.953Z,48.94
2024-01-11T10:22:24.852Z,48.84
2024-01-11T10:23:23.938Z,49.56
2024-01-11T10:24:23.002Z,50.30
2024-01-11T10:25:22.997Z,50.78
2024-01-11T10:26:22.722Z,50.57
2024-01-11T10:27:22.994Z,50.22
2024-01-11T10:28:22.610Z,49.99
2024-01-11T10:29:22.859Z,50.12
2024-01-11T10:30:22.624Z,50.07
2024-01-11T10:31:23.040Z,49.81
2024-01-11T10:32:23.201Z,49.67
2024-01-11T10:33:23.577Z,49.27
2024-01-11T10:34:22.612Z,48.63
2024-01-11T10:35:23.385Z,48.24
2024-01-11T10:36:23.042Z,47.96
2024-01-11T10:37:22.978Z,47.85
2024-01-11T10:38:22.862Z,47.59
2024-01-11T10:39:22.395Z,47.65
2024-01-11T10:40:22.399Z,47.58
2024-01-11T10:41:22.383Z,47.64
2024-01-11T10:42:22.716Z,47.85
2024-01-11T10:43:22.709Z,48.56
2024-01-11T10:44:22.374Z,48.40
2024-01-11T10:45:23.809Z,48.07
2024-01-11T10:46:23.034Z,47.83
2024-01-11T10:47:23.604Z,47.34
2024-01-11T10:48:22.500Z,47.04
2024-01-11T10:49:22.812Z,46.63
2024-01-11T10:50:22.423Z,46.56
2024-01-11T10:51:22.875Z,46.62
2024-01-11T10:52:23.285Z,46.45
2024-01-11T10:53:22.598Z,46.47
2024-01-11T10:54:22.715Z,46.32
2024-01-11T10:55:23.756Z,46.07
2024-01-11T10:56:23.796Z,45.95
2024-01-11T10:57:22.605Z,45.77
2024-01-11T10:58:22.774Z,45.43
2024-01-11T10:59:22.636Z,45.32
2024-01-11T11:00:24.204Z,45.13
2024-01-11T11:01:23.252Z,44.94
2024-01-11T11:02:24.062Z,44.87
2024-01-11T11:03:23.100Z,44.73
2024-01-11T11:04:24.116Z,44.60
2024-01-11T11:05:24.115Z,44.78
2024-01-11T11:06:22.621Z,45.29
2024-01-11T11:07:23.697Z,46.04
2024-01-11T11:08:23.730Z,46.50
2024-01-11T11:09:24.315Z,46.50
2024-01-11T11:10:22.366Z,45.85
2024-01-11T11:11:22.988Z,45.45
2024-01-11T11:12:23.029Z,45.77
2024-01-11T11:13:23.046Z,46.05
2024-01-11T11:14:22.988Z,45.64
2024-01-11T11:15:22.306Z,45.22
2024-01-11T11:16:22.928Z,44.65
2024-01-11T11:17:24.273Z,43.84
2024-01-11T11:18:23.535Z,43.66
2024-01-11T11:19:22.441Z,43.59
2024-01-11T11:20:22.225Z,43.43
2024-01-11T11:21:22.453Z,43.17
2024-01-11T11:22:23.009Z,43.08
2024-01-11T11:23:22.077Z,43.15
2024-01-11T11:24:23.704Z,43.29
2024-01-11T11:25:22.748Z,43.38
2024-01-11T11:26:22.321Z,43.92
2024-01-11T11:27:26.306Z,44.36
2024-01-11T11:28:23.436Z,44.59
2024-01-11T11:29:22.710Z,44.53
2024-01-11T11:30:21.844Z,44.16
2024-01-11T11:31:22.112Z,43.85
2024-01-11T11:32:22.282Z,43.94
2024-01-11T11:33:22.624Z,44.04
2024-01-11T11:34:21.765Z,43.72
2024-01-11T11:35:22.257Z,43.41
2024-01-11T11:36:21.436Z,43.24
2024-01-11T11:37:21.768Z,42.96
2024-01-11T11:38:21.393Z,42.80
2024-01-11T11:39:21.678Z,42.71
2024-01-11T11:40:21.682Z,43.18
2024-01-11T11:41:21.206Z,43.44
2024-01-11T11:42:21.186Z,43.46
2024-01-11T11:43:22.731Z,43.62
2024-01-11T11:44:21.084Z,43.64
2024-01-11T11:45:20.881Z,43.35
2024-01-11T11:46:21.407Z,43.41
2024-01-11T11:47:21.761Z,43.68
2024-01-11T11:48:20.862Z,44.15
2024-01-11T11:49:20.580Z,44.08
2024-01-11T11:50:20.618Z,43.79
2024-01-11T11:51:21.315Z,43.62
2024-01-11T11:52:20.942Z,43.49
2024-01-11T11:53:20.565Z,43.19
2024-01-11T11:54:20.555Z,42.84
2024-01-11T11:55:20.568Z,42.56
2024-01-11T11:56:20.473Z,42.64
2024-01-11T11:57:20.469Z,42.65
2024-01-11T11:58:20.683Z,42.46
2024-01-11T11:59:20.545Z,42.37
2024-01-11T12:00:20.491Z,41.93
2024-01-11T12:01:20.471Z,41.61
2024-01-11T12:02:20.423Z,41.76
2024-01-11T12:03:20.710Z,41.65
2024-01-11T12:04:20.435Z,41.46
2024-01-11T12:05:20.483Z,41.39
2024-01-11T12:06:20.282Z,41.33
2024-01-11T12:07:20.146Z,41.37
2024-01-11T12:08:20.472Z,41.31
2024-01-11T12:09:20.340Z,41.12
2024-01-11T12:10:20.093Z,41.05
2024-01-11T12:11:19.821Z,40.92
2024-01-11T12:12:19.772Z,41.37
2024-01-11T12:13:19.741Z,41.99
2024-01-11T12:14:19.644Z,42.26
2024-01-11T12:15:19.726Z,42.17
2024-01-11T12:16:19.512Z,42.10
2024-01-11T12:17:19.434Z,42.19
2024-01-11T12:18:20.228Z,42.12
2024-01-11T12:19:19.596Z,42.02
2024-01-11T12:20:19.429Z,42.04
2024-01-11T12:21:19.294Z,42.04
2024-01-11T12:22:19.684Z,42.32
2024-01-11T12:23:19.359Z,42.31
2024-01-11T12:24:19.216Z,42.19
2024-01-11T12:25:19.348Z,42.41
2024-01-11T12:26:21.098Z,42.42
2024-01-11T12:27:19.159Z,42.08
2024-01-11T12:28:21.325Z,41.94
2024-01-11T12:29:19.196Z,42.14
2024-01-11T12:30:19.728Z,41.96
2024-01-11T12:31:19.102Z,42.29
2024-01-11T12:32:19.405Z,42.10
2024-01-11T12:33:19.432Z,42.11
2024-01-11T12:34:19.137Z,41.88
2024-01-11T12:35:19.022Z,41.62
2024-01-11T12:36:18.902Z,41.58
2024-01-11T12:37:18.926Z,41.14
2024-01-11T12:38:20.048Z,41.19
2024-01-11T12:39:18.827Z,41.49
2024-01-11T12:40:18.802Z,41.22
2024-01-11T12:41:18.733Z,41.06
2024-01-11T12:42:18.744Z,41.11
2024-01-11T12:43:19.155Z,41.01
2024-01-11T12:44:18.778Z,41.10
2024-01-11T12:45:18.708Z,41.19
2024-01-11T12:46:18.660Z,41.40
2024-01-11T12:47:18.560Z,41.76
2024-01-11T12:48:18.814Z,42.12
2024-01-11T12:49:18.721Z,42.76
2024-01-11T12:50:18.662Z,43.13
2024-01-11T12:51:21.548Z,43.62
2024-01-11T12:52:18.394Z,44.52
2024-01-11T12:53:18.411Z,44.95
2024-01-11T12:54:18.296Z,45.25
2024-01-11T12:55:18.324Z,45.59
2024-01-11T12:56:18.388Z,45.85
2024-01-11T12:57:18.202Z,45.71
2024-01-11T12:58:18.126Z,45.33
2024-01-11T12:59:18.112Z,44.78
2024-01-11T13:00:17.977Z,44.43
2024-01-11T13:01:17.925Z,44.12
2024-01-11T13:02:19.560Z,44.07
2024-01-11T13:03:17.972Z,44.19